Cobbs Creek, Virginia
Current Conditions -  °F | °C
As of 9:55 AM on Tuesday 21 Oct 2014 (Local Time) from KW75 Reporting Station
Broken Clouds Broken Clouds  
Wind Chill: 17°   Ceiling: 12000
Heat Index: 17°   Visibility: 10mi
Dew Point: 12°   Wind: 5mph
Humidity: 73%   Direction: 220°SW
Pressure: 29.9"   Gusts: NA
Location:  37.51°N, 76.4°W
Report Text: KW75 211355Z AUTO 22004KT 10SM BKN120 17/12 A2990 RMK AO1 T01660118
Loading
Personal Weather Stations






























Interactive Weather Map
Tropical Storm Tracking
New forecast layout! Learn more

10-Day Weather Forecast

Advertisements
Track Severe Weather on mobile